Time;durP1;ratioP1;P1;durP2;ratioP2;P2;SDS_P1;SDS_P2;PMS_P1;PMS_P2;Temp;Humidity;BMP_temperature;BMP_pressure;BME280_temperature;BME280_humidity;BME280_pressure;Samples;Min_cycle;Max_cycle;Signal;HPM_P1;HPM_P2
2021/12/10 00:02:35;;;;;;;15.25;6.93;;;;;;;-148.16;100.00;58328.31;5031470;28;20041;-63
2021/12/10 00:05:29;;;;;;;19.27;7.50;;;;;;;-148.16;100.00;58328.31;5032466;28;20046;-62
2021/12/10 00:08:16;;;;;;;16.67;7.50;;;;;;;-148.16;100.00;58328.31;5026261;28;20408;-61
2021/12/10 00:11:06;;;;;;;18.52;7.80;;;;;;;-148.16;100.00;58328.31;5035332;28;20042;-61
2021/12/10 00:13:52;;;;;;;16.92;7.13;;;;;;;-148.16;100.00;58328.31;5034005;28;20049;-61
2021/12/10 00:16:40;;;;;;;18.13;8.52;;;;;;;-148.16;100.00;58328.31;5025816;28;20388;-65
2021/12/10 00:22:41;;;;;;;17.05;7.50;;;;;;;-148.16;100.00;58328.31;5025708;28;20053;-58
2021/12/10 00:25:39;;;;;;;13.27;5.85;;;;;;;-148.16;100.00;58328.31;5039395;28;20049;-66
2021/12/10 00:28:32;;;;;;;14.35;6.55;;;;;;;-148.16;100.00;58328.31;5025559;28;20045;-62
2021/12/10 00:31:29;;;;;;;15.60;6.38;;;;;;;-148.16;100.00;58328.31;5039338;28;20049;-55
2021/12/10 00:34:21;;;;;;;15.20;7.28;;;;;;;-148.16;100.00;58328.31;5033260;28;20419;-63
2021/12/10 00:37:13;;;;;;;13.63;6.18;;;;;;;-148.16;100.00;58328.31;5033350;28;20046;-62
2021/12/10 00:40:05;;;;;;;14.43;6.60;;;;;;;-148.16;100.00;58328.31;5033460;28;20034;-61
2021/12/10 00:42:53;;;;;;;13.85;6.72;;;;;;;-148.16;100.00;58328.31;5033472;28;20049;-57
2021/12/10 00:45:40;;;;;;;14.57;6.88;;;;;;;-148.16;100.00;58328.31;5033554;28;20053;-57
2021/12/10 00:48:27;;;;;;;11.23;5.60;;;;;;;-148.16;100.00;58328.31;5033088;28;20050;-58
2021/12/10 00:51:13;;;;;;;12.35;6.18;;;;;;;-148.16;100.00;58328.31;5032872;28;20042;-59
2021/12/10 00:53:59;;;;;;;10.48;6.35;;;;;;;-148.16;100.00;58328.31;5032878;28;20380;-63
2021/12/10 00:56:46;;;;;;;14.75;6.38;;;;;;;-148.16;100.00;58328.31;5032701;28;20045;-56
2021/12/10 00:59:32;;;;;;;11.38;5.68;;;;;;;-148.16;100.00;58328.31;5038727;28;20388;-62
2021/12/10 01:02:22;;;;;;;15.40;7.20;;;;;;;-148.16;100.00;58328.31;5014125;28;20398;-62
2021/12/10 01:05:11;;;;;;;12.43;6.32;;;;;;;-148.16;100.00;58328.31;5013768;28;20038;-63
2021/12/10 01:07:57;;;;;;;13.80;7.35;;;;;;;-148.16;100.00;58328.31;5032746;28;20046;-61
2021/12/10 01:10:50;;;;;;;16.42;6.30;;;;;;;-148.16;100.00;58328.31;5013913;28;20050;-62
2021/12/10 01:13:38;;;;;;;14.98;6.90;;;;;;;-148.16;100.00;58328.31;5019050;28;20045;-63
2021/12/10 01:26:25;;;;;;;13.40;6.20;;;;;;;-148.16;100.00;58328.31;5045218;28;20045;-63
2021/12/10 01:28:57;;;;;;;;;;;;;;;-148.16;100.00;58328.31;5023988;28;20049;-62
2021/12/10 01:31:47;;;;;;;12.95;6.63;;;;;;;-148.16;100.00;58328.31;5016874;28;19956;-63
2021/12/10 01:34:33;;;;;;;13.18;7.07;;;;;;;-148.16;100.00;58328.31;5031155;28;20049;-64
2021/12/10 01:37:20;;;;;;;13.13;6.45;;;;;;;-148.16;100.00;58328.31;5047942;28;20469;-64
2021/12/10 01:40:07;;;;;;;12.50;6.38;;;;;;;-148.16;100.00;58328.31;5045129;28;20049;-66
2021/12/10 01:43:06;;;;;;;13.35;6.00;;;;;;;-148.16;100.00;58328.31;5030772;28;20038;-62
2021/12/10 01:46:06;;;;;;;19.25;7.53;;;;;;;-148.16;100.00;58328.31;5036681;28;20041;-63
2021/12/10 01:48:55;;;;;;;14.55;6.63;;;;;;;-148.16;100.00;58328.31;5044435;28;20473;-61
2021/12/10 01:51:43;;;;;;;13.05;6.30;;;;;;;-148.16;100.00;58328.31;5022348;28;20467;-62
2021/12/10 01:54:34;;;;;;;14.05;7.22;;;;;;;-148.16;100.00;58328.31;5022376;28;20049;-65
2021/12/10 01:57:23;;;;;;;15.90;7.00;;;;;;;-148.16;100.00;58328.31;5040023;28;20046;-62
2021/12/10 02:00:11;;;;;;;15.00;7.47;;;;;;;-148.16;100.00;58328.31;5046196;28;20145;-59
2021/12/10 02:02:57;;;;;;;16.05;7.47;;;;;;;-148.16;100.00;58328.31;5013190;28;20045;-61
2021/12/10 02:05:43;;;;;;;15.98;6.93;;;;;;;-148.16;100.00;58328.31;5013091;28;20034;-62
2021/12/10 02:08:30;;;;;;;16.58;8.00;;;;;;;-148.16;100.00;58328.31;5017749;28;20049;-62
2021/12/10 02:11:16;;;;;;;16.55;7.15;;;;;;;-148.16;100.00;58328.31;5017848;28;20058;-55
2021/12/10 02:14:03;;;;;;;15.93;7.18;;;;;;;-148.16;100.00;58328.31;5011836;28;20038;-62
2021/12/10 02:16:51;;;;;;;14.95;7.05;;;;;;;-148.16;100.00;58328.31;5018103;28;20045;-61
2021/12/10 02:19:39;;;;;;;19.70;8.20;;;;;;;-148.16;100.00;58328.31;5044904;28;20045;-62
2021/12/10 02:22:25;;;;;;;17.13;7.22;;;;;;;-148.16;100.00;58328.31;5031335;28;20041;-63
2021/12/10 02:25:12;;;;;;;15.70;7.18;;;;;;;-148.16;100.00;58328.31;5037148;28;20385;-61
2021/12/10 02:27:59;;;;;;;16.65;7.60;;;;;;;-148.16;100.00;58328.31;5031729;28;20042;-61
2021/12/10 02:30:46;;;;;;;14.23;7.15;;;;;;;-148.16;100.00;58328.31;5031229;28;20049;-56
2021/12/10 02:33:33;;;;;;;18.98;8.23;;;;;;;-148.16;100.00;58328.31;5022948;28;20045;-61
2021/12/10 02:36:19;;;;;;;13.52;6.85;;;;;;;-148.16;100.00;58328.31;5032031;28;20714;-60
2021/12/10 02:39:06;;;;;;;16.23;7.93;;;;;;;-148.16;100.00;58328.31;5031966;28;20049;-58
2021/12/10 02:41:52;;;;;;;13.73;7.10;;;;;;;-148.16;100.00;58328.31;5030870;28;20049;-56
2021/12/10 02:44:38;;;;;;;16.70;7.30;;;;;;;-148.16;100.00;58328.31;5031692;28;20041;-61
2021/12/10 02:47:24;;;;;;;14.45;6.78;;;;;;;-148.16;100.00;58328.31;5031069;28;20045;-61
2021/12/10 02:50:12;;;;;;;15.90;7.53;;;;;;;-148.16;100.00;58328.31;5022642;28;20049;-62
2021/12/10 02:53:00;;;;;;;15.10;6.82;;;;;;;-148.16;100.00;58328.31;5023013;28;20044;-59
2021/12/10 02:55:47;;;;;;;23.70;8.93;;;;;;;-148.16;100.00;58328.31;5023025;28;20376;-63
2021/12/10 02:58:34;;;;;;;19.63;7.97;;;;;;;-148.16;100.00;58328.31;5032016;28;20045;-63
2021/12/10 03:01:30;;;;;;;20.85;8.90;;;;;;;-148.16;100.00;58328.31;5030744;28;20485;-61
2021/12/10 03:04:16;;;;;;;18.70;8.60;;;;;;;-148.16;100.00;58328.31;5022889;28;20045;-62
2021/12/10 03:07:08;;;;;;;18.52;9.18;;;;;;;-148.16;100.00;58328.31;5031009;28;20053;-62
2021/12/10 03:09:54;;;;;;;16.42;7.70;;;;;;;-148.16;100.00;58328.31;5036783;28;20045;-60
2021/12/10 03:12:40;;;;;;;22.10;9.55;;;;;;;-148.16;100.00;58328.31;5031617;28;20049;-57
2021/12/10 03:15:27;;;;;;;21.25;9.52;;;;;;;-148.16;100.00;58328.31;5031741;28;20053;-60
2021/12/10 03:18:17;;;;;;;15.77;7.63;;;;;;;-148.16;100.00;58328.31;5031490;28;20050;-63
2021/12/10 03:21:09;;;;;;;17.25;8.60;;;;;;;-148.16;100.00;58328.31;5038043;28;20487;-59
2021/12/10 03:23:55;;;;;;;19.58;8.57;;;;;;;-148.16;100.00;58328.31;5022494;28;20037;-62
2021/12/10 03:26:41;;;;;;;22.17;9.50;;;;;;;-148.16;100.00;58328.31;5031344;28;20041;-64
2021/12/10 03:29:28;;;;;;;17.30;7.90;;;;;;;-148.16;100.00;58328.31;5031659;28;20061;-63
2021/12/10 03:32:22;;;;;;;17.90;7.70;;;;;;;-148.16;100.00;58328.31;5030874;28;20512;-58
2021/12/10 03:35:14;;;;;;;18.33;8.10;;;;;;;-148.16;100.00;58328.31;5031240;28;20037;-61
2021/12/10 03:38:04;;;;;;;19.55;8.30;;;;;;;-148.16;100.00;58328.31;5048946;28;20050;-61
2021/12/10 03:40:51;;;;;;;19.33;8.30;;;;;;;-148.16;100.00;58328.31;5061427;28;20030;-61
2021/12/10 03:43:41;;;;;;;15.65;7.40;;;;;;;-148.16;100.00;58328.31;5054542;28;20045;-62
2021/12/10 03:46:28;;;;;;;24.88;10.65;;;;;;;-148.16;100.00;58328.31;5068428;28;20373;-62
2021/12/10 03:49:15;;;;;;;21.45;9.63;;;;;;;-148.16;100.00;58328.31;5040180;28;20053;-62
2021/12/10 03:52:03;;;;;;;18.10;8.30;;;;;;;-148.16;100.00;58328.31;5041371;28;20388;-56
2021/12/10 03:54:50;;;;;;;16.75;8.57;;;;;;;-148.16;100.00;58328.31;5067652;28;20481;-60
2021/12/10 03:57:37;;;;;;;16.95;8.57;;;;;;;-148.16;100.00;58328.31;5047785;28;20050;-60
2021/12/10 04:00:28;;;;;;;17.13;8.40;;;;;;;-148.16;100.00;58328.31;5032850;28;20065;-58
2021/12/10 04:03:18;;;;;;;18.98;8.60;;;;;;;-148.16;100.00;58328.31;5035071;28;20046;-63
2021/12/10 04:06:06;;;;;;;19.52;8.07;;;;;;;-148.16;100.00;58328.31;5035807;28;20488;-57
2021/12/10 04:08:53;;;;;;;20.00;8.13;;;;;;;-148.16;100.00;58328.31;5033626;28;20041;-62
2021/12/10 04:11:42;;;;;;;17.13;7.43;;;;;;;-148.16;100.00;58328.31;5032209;28;20041;-61
2021/12/10 04:14:28;;;;;;;16.45;7.88;;;;;;;-148.16;100.00;58328.31;5038460;28;20488;-62
2021/12/10 04:17:18;;;;;;;15.57;7.63;;;;;;;-148.16;100.00;58328.31;5033041;28;20041;-64
2021/12/10 04:20:07;;;;;;;18.88;8.40;;;;;;;-148.16;100.00;58328.31;5039114;28;20041;-61
2021/12/10 04:22:54;;;;;;;14.23;6.07;;;;;;;-148.16;100.00;58328.31;5033615;28;20037;-61
2021/12/10 04:25:41;;;;;;;13.73;6.80;;;;;;;-148.16;100.00;58328.31;5027654;28;20041;-64
2021/12/10 04:28:27;;;;;;;14.32;7.00;;;;;;;-148.16;100.00;58328.31;5031708;28;20049;-61
2021/12/10 04:31:15;;;;;;;16.77;8.02;;;;;;;-148.16;100.00;58328.31;5031857;28;20045;-62
2021/12/10 04:34:01;;;;;;;16.45;6.82;;;;;;;-148.16;100.00;58328.31;5018293;28;20037;-62
2021/12/10 04:36:49;;;;;;;14.45;6.47;;;;;;;-148.16;100.00;58328.31;5033890;28;20045;-67
2021/12/10 04:39:38;;;;;;;18.58;8.32;;;;;;;-148.16;100.00;58328.31;5024842;28;20037;-59
2021/12/10 04:42:25;;;;;;;15.85;8.13;;;;;;;-148.16;100.00;58328.31;5038828;28;20089;-61
2021/12/10 04:45:14;;;;;;;13.45;7.32;;;;;;;-148.16;100.00;58328.31;5038644;28;20392;-56
2021/12/10 04:48:00;;;;;;;14.18;6.95;;;;;;;-148.16;100.00;58328.31;5033920;28;20053;-64
2021/12/10 04:50:45;;;;;;;14.90;6.70;;;;;;;-148.16;100.00;58328.31;5037947;28;20045;-62
2021/12/10 04:53:31;;;;;;;13.95;6.70;;;;;;;-148.16;100.00;58328.31;5038473;28;20041;-63
2021/12/10 04:56:17;;;;;;;13.52;7.88;;;;;;;-148.16;100.00;58328.31;5032276;28;20045;-61
2021/12/10 04:59:06;;;;;;;16.75;7.85;;;;;;;-148.16;100.00;58328.31;5033451;28;20041;-61
2021/12/10 05:01:55;;;;;;;19.67;8.88;;;;;;;-148.16;100.00;58328.31;5034146;28;20049;-58
2021/12/10 05:04:43;;;;;;;16.25;7.13;;;;;;;-148.16;100.00;58328.31;5032576;28;20041;-62
2021/12/10 05:07:32;;;;;;;12.13;6.05;;;;;;;-148.16;100.00;58328.31;5010847;28;20045;-61
2021/12/10 05:10:18;;;;;;;14.68;7.13;;;;;;;-148.16;100.00;58328.31;5033487;28;20037;-61
2021/12/10 05:13:06;;;;;;;12.00;6.55;;;;;;;-148.16;100.00;58328.31;5032884;28;20485;-61
2021/12/10 05:15:57;;;;;;;14.55;7.13;;;;;;;-148.16;100.00;58328.31;5032888;28;20045;-61
2021/12/10 05:18:48;;;;;;;11.38;5.40;;;;;;;-148.16;100.00;58328.31;5029816;28;20045;-62
2021/12/10 05:21:36;;;;;;;12.55;5.93;;;;;;;-148.16;100.00;58328.31;5037861;28;20042;-62
2021/12/10 05:24:23;;;;;;;14.18;6.32;;;;;;;-148.16;100.00;58328.31;5024436;28;20460;-60
2021/12/10 05:27:10;;;;;;;11.98;6.15;;;;;;;-148.16;100.00;58328.31;5023857;28;20045;-59
2021/12/10 05:29:57;;;;;;;13.45;6.85;;;;;;;-148.16;100.00;58328.31;5024223;28;20396;-58
2021/12/10 05:32:43;;;;;;;10.80;5.43;;;;;;;-148.16;100.00;58328.31;5032834;28;20041;-61
2021/12/10 05:35:31;;;;;;;8.82;5.30;;;;;;;-148.16;100.00;58328.31;5028954;28;20736;-60
2021/12/10 05:38:19;;;;;;;8.43;5.18;;;;;;;-148.16;100.00;58328.31;5004333;28;20358;-62
2021/12/10 05:41:10;;;;;;;12.77;5.93;;;;;;;-148.16;100.00;58328.31;5018124;28;20393;-59
2021/12/10 05:43:57;;;;;;;15.10;6.80;;;;;;;-148.16;100.00;58328.31;5028972;28;20046;-59
2021/12/10 05:46:44;;;;;;;13.20;6.65;;;;;;;-148.16;100.00;58328.31;5018367;28;20385;-61
2021/12/10 05:49:29;;;;;;;9.32;4.85;;;;;;;-148.16;100.00;58328.31;5026139;28;20426;-63
2021/12/10 05:52:15;;;;;;;14.82;7.38;;;;;;;-148.16;100.00;58328.31;5039985;28;20482;-61
2021/12/10 05:55:02;;;;;;;11.13;5.47;;;;;;;-148.16;100.00;58328.31;5030334;28;20060;-61
2021/12/10 05:57:48;;;;;;;19.38;6.80;;;;;;;-148.16;100.00;58328.31;5031438;28;20477;-58
2021/12/10 06:00:39;;;;;;;17.52;7.88;;;;;;;-148.16;100.00;58328.31;5030831;28;20037;-60
2021/12/10 06:03:26;;;;;;;21.20;9.07;;;;;;;-148.16;100.00;58328.31;5043942;28;20046;-56
2021/12/10 06:06:12;;;;;;;12.25;6.45;;;;;;;-148.16;100.00;58328.31;5058877;28;20484;-58
2021/12/10 06:09:01;;;;;;;14.45;7.55;;;;;;;-148.16;100.00;58328.31;5030534;28;20033;-61
2021/12/10 06:11:48;;;;;;;13.65;7.28;;;;;;;-148.16;100.00;58328.31;5033373;28;20045;-60
2021/12/10 06:14:35;;;;;;;15.07;7.20;;;;;;;-148.16;100.00;58328.31;5032170;28;20330;-61
2021/12/10 06:17:22;;;;;;;15.98;8.43;;;;;;;-148.16;100.00;58328.31;5031478;28;20041;-60
2021/12/10 06:20:11;;;;;;;11.45;5.68;;;;;;;-148.16;100.00;58328.31;5017097;28;20041;-61
2021/12/10 06:22:59;;;;;;;16.10;7.35;;;;;;;-148.16;100.00;58328.31;5036797;28;20041;-60
2021/12/10 06:25:46;;;;;;;16.10;7.22;;;;;;;-148.16;100.00;58328.31;5032828;28;20038;-57
2021/12/10 06:28:34;;;;;;;14.70;7.45;;;;;;;-148.16;100.00;58328.31;5047565;28;20041;-60
2021/12/10 06:31:22;;;;;;;13.80;6.35;;;;;;;-148.16;100.00;58328.31;5052285;28;20041;-58
2021/12/10 06:34:09;;;;;;;14.70;6.57;;;;;;;-148.16;100.00;58328.31;5016259;28;20400;-63
2021/12/10 06:36:56;;;;;;;13.57;6.68;;;;;;;-148.16;100.00;58328.31;5058135;28;20036;-62
2021/12/10 06:39:41;;;;;;;16.02;7.18;;;;;;;-148.16;100.00;58328.31;5058291;28;20037;-58
2021/12/10 06:42:30;;;;;;;13.25;6.20;;;;;;;-148.16;100.00;58328.31;5058034;28;20396;-59
2021/12/10 06:45:19;;;;;;;14.10;6.68;;;;;;;-148.16;100.00;58328.31;5052006;28;20041;-59
2021/12/10 06:48:10;;;;;;;14.85;6.47;;;;;;;-148.16;100.00;58328.31;5058002;28;20040;-58
2021/12/10 06:50:59;;;;;;;11.95;6.47;;;;;;;-148.16;100.00;58328.31;5052744;28;20049;-61
2021/12/10 06:53:47;;;;;;;13.43;5.18;;;;;;;-148.16;100.00;58328.31;5051972;28;20484;-39
2021/12/10 06:56:36;;;;;;;17.17;5.95;;;;;;;-148.16;100.00;58328.31;5042200;28;20049;-41
2021/12/10 06:59:24;;;;;;;17.27;5.93;;;;;;;-148.16;100.00;58328.31;5031942;28;20049;-67
2021/12/10 07:02:12;;;;;;;14.57;6.03;;;;;;;-148.16;100.00;58328.31;5031699;28;20468;-63
2021/12/10 07:04:58;;;;;;;12.18;5.95;;;;;;;-148.16;100.00;58328.31;5023635;28;20049;-61
2021/12/10 07:07:45;;;;;;;20.98;8.60;;;;;;;-148.16;100.00;58328.31;5030730;28;20831;-62
2021/12/10 07:10:31;;;;;;;15.80;8.43;;;;;;;-148.16;100.00;58328.31;5027919;28;20042;-63
2021/12/10 07:13:17;;;;;;;17.95;9.23;;;;;;;-148.16;100.00;58328.31;5035274;28;20041;-49
2021/12/10 07:16:05;;;;;;;31.40;13.50;;;;;;;-148.16;100.00;58328.31;5031456;28;20041;-57
2021/12/10 07:18:53;;;;;;;25.55;11.63;;;;;;;-148.16;100.00;58328.31;5031589;28;20046;-61
2021/12/10 07:21:39;;;;;;;22.02;8.90;;;;;;;-148.16;100.00;58328.31;5032576;28;20045;-60
2021/12/10 07:24:24;;;;;;;16.77;7.72;;;;;;;-148.16;100.00;58328.31;5026522;28;20049;-62
2021/12/10 07:27:11;;;;;;;17.75;7.13;;;;;;;-148.16;100.00;58328.31;5031016;28;20045;-65
2021/12/10 07:29:57;;;;;;;16.98;8.05;;;;;;;-148.16;100.00;58328.31;5035530;28;20041;-63
2021/12/10 07:32:44;;;;;;;17.67;7.47;;;;;;;-148.16;100.00;58328.31;5023851;28;20033;-63
2021/12/10 07:35:30;;;;;;;19.83;7.75;;;;;;;-148.16;100.00;58328.31;5028364;28;20038;-60
2021/12/10 07:38:17;;;;;;;17.42;7.90;;;;;;;-148.16;100.00;58328.31;5030564;28;20058;-60
2021/12/10 07:41:06;;;;;;;12.23;6.65;;;;;;;-148.16;100.00;58328.31;5030350;28;20030;-61
2021/12/10 07:43:53;;;;;;;17.08;8.35;;;;;;;-148.16;100.00;58328.31;5028206;28;20053;-60
2021/12/10 07:46:40;;;;;;;13.10;5.45;;;;;;;-148.16;100.00;58328.31;5028724;28;20046;-62
2021/12/10 07:49:30;;;;;;;28.23;12.48;;;;;;;-148.16;100.00;58328.31;5055949;28;20049;-62
2021/12/10 07:52:22;;;;;;;21.55;9.00;;;;;;;-148.16;100.00;58328.31;5028871;28;20050;-59
2021/12/10 07:55:11;;;;;;;15.23;6.95;;;;;;;-148.16;100.00;58328.31;5032193;28;20037;-59
2021/12/10 07:57:58;;;;;;;15.68;8.00;;;;;;;-148.16;100.00;58328.31;5016103;28;20464;-60
2021/12/10 08:00:47;;;;;;;17.38;8.15;;;;;;;-148.16;100.00;58328.31;5027585;28;20041;-57
2021/12/10 08:03:33;;;;;;;16.58;7.55;;;;;;;-148.16;100.00;58328.31;5028781;28;20041;-59
2021/12/10 08:06:20;;;;;;;15.82;7.35;;;;;;;-148.16;100.00;58328.31;5029101;28;20128;-58
2021/12/10 08:09:09;;;;;;;12.35;6.97;;;;;;;-148.16;100.00;58328.31;5029521;28;20038;-59
2021/12/10 08:11:55;;;;;;;12.77;7.32;;;;;;;-148.16;100.00;58328.31;5030168;28;20037;-59
2021/12/10 08:14:42;;;;;;;13.27;6.70;;;;;;;-148.16;100.00;58328.31;5035298;28;20041;-60
2021/12/10 08:17:29;;;;;;;9.57;5.60;;;;;;;-148.16;100.00;58328.31;5030848;28;20045;-59
2021/12/10 08:20:19;;;;;;;12.90;6.57;;;;;;;-148.16;100.00;58328.31;5021897;28;20472;-64
2021/12/10 08:23:06;;;;;;;14.50;6.97;;;;;;;-148.16;100.00;58328.31;5030968;28;20046;-60
2021/12/10 08:25:53;;;;;;;13.60;7.20;;;;;;;-148.16;100.00;58328.31;5029310;28;20041;-59
2021/12/10 08:28:39;;;;;;;14.63;6.88;;;;;;;-148.16;100.00;58328.31;5035815;28;20045;-61
2021/12/10 08:31:28;;;;;;;16.67;7.93;;;;;;;-148.16;100.00;58328.31;5034256;28;20407;-59
2021/12/10 08:34:14;;;;;;;16.42;8.32;;;;;;;-148.16;100.00;58328.31;5061581;28;20038;-61
2021/12/10 08:37:00;;;;;;;17.67;8.10;;;;;;;-148.16;100.00;58328.31;5031684;28;20046;-61
2021/12/10 08:39:47;;;;;;;15.70;7.45;;;;;;;-148.16;100.00;58328.31;5034453;28;20041;-59
2021/12/10 08:42:34;;;;;;;16.17;7.63;;;;;;;-148.16;100.00;58328.31;5023381;28;20037;-59
2021/12/10 08:45:23;;;;;;;15.13;7.78;;;;;;;-148.16;100.00;58328.31;5034193;28;20053;-60
2021/12/10 08:48:09;;;;;;;18.67;8.27;;;;;;;-148.16;100.00;58328.31;5034657;28;20034;-61
2021/12/10 08:51:00;;;;;;;16.30;7.88;;;;;;;-148.16;100.00;58328.31;5026706;28;20054;-56
2021/12/10 08:53:46;;;;;;;17.95;8.15;;;;;;;-148.16;100.00;58328.31;5040241;28;20033;-56
2021/12/10 08:56:33;;;;;;;14.98;7.50;;;;;;;-148.16;100.00;58328.31;5034027;28;20045;-59
2021/12/10 08:59:23;;;;;;;17.98;7.50;;;;;;;-148.16;100.00;58328.31;5034449;28;20045;-62
2021/12/10 09:02:13;;;;;;;15.48;6.35;;;;;;;-148.16;100.00;58328.31;5035434;28;20037;-64
2021/12/10 09:05:00;;;;;;;18.42;8.15;;;;;;;-148.16;100.00;58328.31;5025817;28;20041;-66
2021/12/10 09:07:47;;;;;;;16.02;6.70;;;;;;;-148.16;100.00;58328.31;5037207;28;20033;-58
2021/12/10 09:10:37;;;;;;;20.17;7.68;;;;;;;-148.16;100.00;58328.31;5033788;28;20053;-61
2021/12/10 09:13:25;;;;;;;17.75;7.13;;;;;;;-148.16;100.00;58328.31;5026158;28;20045;-60
2021/12/10 09:16:21;;;;;;;18.55;7.75;;;;;;;-148.16;100.00;58328.31;5004977;28;20049;-56
2021/12/10 09:19:11;;;;;;;9.45;5.25;;;;;;;-148.16;100.00;58328.31;5021388;28;20038;-58
2021/12/10 09:21:57;;;;;;;14.88;6.45;;;;;;;-148.16;100.00;58328.31;5032980;28;20050;-57
2021/12/10 09:24:44;;;;;;;13.55;5.70;;;;;;;-148.16;100.00;58328.31;5025209;28;20045;-58
2021/12/10 09:27:30;;;;;;;14.75;5.43;;;;;;;-148.16;100.00;58328.31;5032828;28;20049;-54
2021/12/10 09:30:19;;;;;;;10.85;4.88;;;;;;;-148.16;100.00;58328.31;5033931;28;20392;-56
2021/12/10 09:33:06;;;;;;;14.25;5.03;;;;;;;-148.16;100.00;58328.31;5033512;28;20041;-60
2021/12/10 09:35:53;;;;;;;18.00;9.88;;;;;;;-148.16;100.00;58328.31;5038596;28;20041;-56
2021/12/10 09:38:39;;;;;;;44.85;17.88;;;;;;;-148.16;100.00;58328.31;5033389;28;20041;-58
2021/12/10 09:41:26;;;;;;;19.20;7.75;;;;;;;-148.16;100.00;58328.31;5033706;28;20049;-51
2021/12/10 09:44:16;;;;;;;25.08;11.43;;;;;;;-148.16;100.00;58328.31;5033395;28;20477;-57
2021/12/10 09:47:04;;;;;;;24.48;9.38;;;;;;;-148.16;100.00;58328.31;5024260;28;20116;-61
2021/12/10 09:49:54;;;;;;;16.10;6.80;;;;;;;-148.16;100.00;58328.31;5033458;28;20448;-57
2021/12/10 09:52:42;;;;;;;15.00;6.28;;;;;;;-148.16;100.00;58328.31;5024085;28;20053;-59
2021/12/10 09:55:29;;;;;;;13.90;6.32;;;;;;;-148.16;100.00;58328.31;5032214;28;20045;-53
2021/12/10 09:58:17;;;;;;;14.18;6.28;;;;;;;-148.16;100.00;58328.31;4993719;28;20042;-61
2021/12/10 10:01:15;;;;;;;16.52;7.53;;;;;;;-148.16;100.00;58328.31;5019866;28;20370;-55
2021/12/10 10:04:04;;;;;;;12.25;5.60;;;;;;;-148.16;100.00;58328.31;5019880;28;20038;-57
2021/12/10 10:06:58;;;;;;;14.32;5.82;;;;;;;-148.16;100.00;58328.31;4993688;28;20046;-57
2021/12/10 10:09:48;;;;;;;13.00;5.85;;;;;;;-148.16;100.00;58328.31;5000053;28;20038;-56
2021/12/10 10:12:37;;;;;;;14.48;6.60;;;;;;;-148.16;100.00;58328.31;4993637;28;20054;-54
2021/12/10 10:15:27;;;;;;;11.82;6.40;;;;;;;-148.16;100.00;58328.31;4993419;28;20461;-52
2021/12/10 10:18:15;;;;;;;11.90;5.28;;;;;;;-148.16;100.00;58328.31;4993166;28;20042;-57
2021/12/10 10:21:07;;;;;;;11.98;5.72;;;;;;;-148.16;100.00;58328.31;4993369;28;20046;-55
2021/12/10 10:23:54;;;;;;;14.30;6.18;;;;;;;-148.16;100.00;58328.31;4993039;28;20042;-56
2021/12/10 10:26:45;;;;;;;11.43;5.55;;;;;;;-148.16;100.00;58328.31;4993896;28;20042;-56
2021/12/10 10:29:36;;;;;;;13.10;6.65;;;;;;;-148.16;100.00;58328.31;4998348;28;20380;-56
2021/12/10 10:32:27;;;;;;;17.00;8.07;;;;;;;-148.16;100.00;58328.31;5005694;28;20050;-59
2021/12/10 10:35:17;;;;;;;16.23;8.38;;;;;;;-148.16;100.00;58328.31;5012201;28;20450;-52
2021/12/10 10:38:06;;;;;;;17.98;9.00;;;;;;;-148.16;100.00;58328.31;5006551;28;20046;-57
2021/12/10 10:41:04;;;;;;;15.88;7.35;;;;;;;-148.16;100.00;58328.31;4993078;28;20046;-51
2021/12/10 10:43:50;;;;;;;19.02;9.10;;;;;;;-148.16;100.00;58328.31;5012253;28;20030;-58
2021/12/10 10:46:36;;;;;;;17.70;8.18;;;;;;;-148.16;100.00;58328.31;4998531;28;20042;-55
2021/12/10 10:49:33;;;;;;;19.98;9.60;;;;;;;-148.16;100.00;58328.31;5005326;28;20046;-56
2021/12/10 10:52:28;;;;;;;14.68;6.97;;;;;;;-148.16;100.00;58328.31;4993660;28;20046;-61
2021/12/10 10:55:19;;;;;;;17.30;8.30;;;;;;;-148.16;100.00;58328.31;4993381;28;20042;-59
2021/12/10 10:58:09;;;;;;;22.23;9.73;;;;;;;-148.16;100.00;58328.31;5043513;28;20046;-53
2021/12/10 11:01:04;;;;;;;22.90;8.85;;;;;;;-148.16;100.00;58328.31;5031452;28;20041;-52
2021/12/10 11:04:08;;;;;;;23.75;9.68;;;;;;;-148.16;100.00;58328.31;5030653;28;20041;-63
2021/12/10 11:07:16;;;;;;;18.65;8.23;;;;;;;-148.16;100.00;58328.31;5035693;28;20057;-52
2021/12/10 11:10:05;;;;;;;22.83;9.90;;;;;;;-148.16;100.00;58328.31;5035906;28;20455;-59
2021/12/10 11:12:51;;;;;;;25.23;9.70;;;;;;;-148.16;100.00;58328.31;5031188;28;20389;-56
2021/12/10 11:15:38;;;;;;;25.02;9.63;;;;;;;-148.16;100.00;58328.31;5057825;28;20037;-53
2021/12/10 11:18:26;;;;;;;20.25;9.07;;;;;;;-148.16;100.00;58328.31;5021522;28;20392;-62
2021/12/10 11:21:13;;;;;;;25.92;10.57;;;;;;;-148.16;100.00;58328.31;5030839;28;20057;-56
2021/12/10 11:24:45;;;;;;;23.20;8.93;;;;;;;-148.16;100.00;58328.31;5032332;28;20041;-53
2021/12/10 11:27:38;;;;;;;28.27;11.25;;;;;;;-148.16;100.00;58328.31;5031424;28;20041;-57
2021/12/10 11:30:26;;;;;;;25.95;11.10;;;;;;;-148.16;100.00;58328.31;5031694;28;20050;-57
2021/12/10 11:33:16;;;;;;;27.98;10.52;;;;;;;-148.16;100.00;58328.31;5036289;28;20392;-58
2021/12/10 11:36:09;;;;;;;25.58;10.75;;;;;;;-148.16;100.00;58328.31;5030630;28;20045;-56
2021/12/10 11:38:57;;;;;;;28.85;11.82;;;;;;;-148.16;100.00;58328.31;5036350;28;20037;-54
2021/12/10 11:41:43;;;;;;;28.15;11.15;;;;;;;-148.16;100.00;58328.31;5031008;28;20037;-56
2021/12/10 11:45:04;;;;;;;22.55;9.93;;;;;;;-148.16;100.00;58328.31;5030064;28;20037;-56
2021/12/10 11:47:51;;;;;;;26.70;10.65;;;;;;;-148.16;100.00;58328.31;5031278;28;20033;-55
2021/12/10 11:50:44;;;;;;;29.17;11.95;;;;;;;-148.16;100.00;58328.31;5031235;28;20042;-52
2021/12/10 11:53:47;;;;;;;29.67;11.80;;;;;;;-148.16;100.00;58328.31;5031638;28;20042;-59
2021/12/10 11:56:40;;;;;;;30.67;12.15;;;;;;;-148.16;100.00;58328.31;5020602;28;20045;-58
2021/12/10 11:59:36;;;;;;;29.65;11.60;;;;;;;-148.16;100.00;58328.31;5036126;28;20046;-55
2021/12/10 12:02:27;;;;;;;28.90;10.85;;;;;;;-148.16;100.00;58328.31;5019930;28;20045;-56
2021/12/10 12:05:18;;;;;;;33.17;13.05;;;;;;;-148.16;100.00;58328.31;5034993;28;20468;-57
2021/12/10 12:08:09;;;;;;;27.45;11.27;;;;;;;-148.16;100.00;58328.31;5034011;28;20045;-59
2021/12/10 12:10:59;;;;;;;26.02;10.10;;;;;;;-148.16;100.00;58328.31;5035222;28;20042;-57
2021/12/10 12:13:54;;;;;;;23.98;10.18;;;;;;;-148.16;100.00;58328.31;5039781;28;20053;-57
2021/12/10 12:16:40;;;;;;;28.13;11.27;;;;;;;-148.16;100.00;58328.31;5039933;28;20690;-52
2021/12/10 12:19:31;;;;;;;27.20;9.85;;;;;;;-148.16;100.00;58328.31;5034813;28;20037;-60
2021/12/10 12:25:26;;;;;;;25.35;10.00;;;;;;;-148.16;100.00;58328.31;5034698;28;20044;-58
2021/12/10 12:28:16;;;;;;;22.92;9.73;;;;;;;-148.16;100.00;58328.31;5034534;28;20041;-59
2021/12/10 12:31:08;;;;;;;26.17;10.57;;;;;;;-148.16;100.00;58328.31;5040581;28;20380;-52
2021/12/10 12:33:59;;;;;;;;;;;;;;;-148.16;100.00;58328.31;5035188;28;20484;-57
2021/12/10 12:36:51;;;;;;;31.38;10.73;;;;;;;-148.16;100.00;58328.31;5034587;28;20003;-59
2021/12/10 12:39:46;;;;;;;29.50;11.13;;;;;;;-148.16;100.00;58328.31;5035716;28;20053;-52
2021/12/10 12:42:37;;;;;;;27.42;10.32;;;;;;;-148.16;100.00;58328.31;5026268;28;20456;-58
2021/12/10 12:45:24;;;;;;;29.13;10.73;;;;;;;-148.16;100.00;58328.31;5040370;28;20392;-59
2021/12/10 12:48:11;;;;;;;32.50;11.25;;;;;;;-148.16;100.00;58328.31;5039602;28;20037;-59
2021/12/10 12:51:02;;;;;;;33.63;12.85;;;;;;;-148.16;100.00;58328.31;5034560;28;20033;-56
2021/12/10 12:53:49;;;;;;;29.23;10.75;;;;;;;-148.16;100.00;58328.31;5033089;28;20392;-57
2021/12/10 12:56:38;;;;;;;28.40;11.35;;;;;;;-148.16;100.00;58328.31;5031414;28;20045;-63